createdAt,value
2022-10-17T00:02:10.290Z,15.40
2022-10-17T00:04:36.832Z,15.30
2022-10-17T00:07:03.370Z,15.20
2022-10-17T00:09:30.056Z,15.20
2022-10-17T00:11:56.667Z,15.20
2022-10-17T00:14:23.371Z,15.20
2022-10-17T00:16:49.944Z,15.10
2022-10-17T00:19:16.525Z,15.10
2022-10-17T00:21:43.215Z,15.10
2022-10-17T00:24:09.764Z,15.10
2022-10-17T00:26:36.454Z,15.20
2022-10-17T00:29:03.237Z,15.20
2022-10-17T00:31:32.971Z,15.20
2022-10-17T00:33:59.651Z,15.10
2022-10-17T00:36:26.338Z,15.10
2022-10-17T00:38:54.342Z,15.10
2022-10-17T00:41:24.389Z,15.20
2022-10-17T00:43:51.059Z,15.20
2022-10-17T00:46:19.432Z,15.10
2022-10-17T00:48:50.856Z,15.10
2022-10-17T00:51:19.288Z,15.20
2022-10-17T00:53:45.788Z,15.20
2022-10-17T00:56:12.803Z,15.20
2022-10-17T00:58:39.483Z,15.20
2022-10-17T01:01:06.018Z,15.20
2022-10-17T01:03:32.565Z,15.20
2022-10-17T01:05:59.746Z,15.20
2022-10-17T01:08:26.614Z,15.20
2022-10-17T01:10:58.860Z,15.20
2022-10-17T01:13:28.226Z,15.20
2022-10-17T01:16:13.078Z,15.20
2022-10-17T01:18:39.709Z,15.20
2022-10-17T01:21:09.858Z,15.20
2022-10-17T01:23:42.424Z,15.30
2022-10-17T01:26:11.879Z,15.30
2022-10-17T01:29:01.186Z,15.30
2022-10-17T01:31:50.784Z,15.20
2022-10-17T01:34:20.415Z,15.30
2022-10-17T01:36:53.076Z,15.20
2022-10-17T01:39:39.079Z,15.20
2022-10-17T01:42:21.567Z,15.30
2022-10-17T01:44:57.200Z,15.30
2022-10-17T01:47:26.988Z,15.30
2022-10-17T01:49:55.242Z,15.30
2022-10-17T01:52:26.855Z,15.20
2022-10-17T01:54:56.003Z,15.10
2022-10-17T01:57:45.500Z,15.30
2022-10-17T02:00:15.184Z,15.20
2022-10-17T02:02:43.395Z,15.20
2022-10-17T02:05:10.005Z,15.20
2022-10-17T02:07:36.745Z,15.30
2022-10-17T02:10:10.387Z,15.30
2022-10-17T02:12:58.251Z,15.40
2022-10-17T02:15:39.684Z,15.30
2022-10-17T02:18:24.986Z,15.30
2022-10-17T02:21:10.624Z,15.20
2022-10-17T02:23:46.999Z,15.30
2022-10-17T02:26:19.347Z,15.30
2022-10-17T02:29:04.413Z,15.30
2022-10-17T02:31:43.535Z,15.30
2022-10-17T02:34:16.462Z,15.30
2022-10-17T02:36:46.548Z,15.30
2022-10-17T02:39:13.543Z,15.20
2022-10-17T02:41:40.691Z,15.20
2022-10-17T02:44:07.599Z,15.30
2022-10-17T02:46:35.290Z,15.30
2022-10-17T02:49:16.423Z,15.30
2022-10-17T02:51:51.530Z,15.30
2022-10-17T02:54:37.255Z,15.30
2022-10-17T02:57:10.165Z,15.40
2022-10-17T02:59:37.001Z,15.40
2022-10-17T03:02:06.326Z,15.50
2022-10-17T03:04:33.715Z,15.40
2022-10-17T03:07:00.458Z,15.50
2022-10-17T03:09:27.372Z,15.60
2022-10-17T03:11:55.529Z,15.60
2022-10-17T03:14:22.216Z,15.70
2022-10-17T03:16:48.934Z,15.70
2022-10-17T03:19:15.491Z,15.70
2022-10-17T03:21:42.237Z,15.70
2022-10-17T03:24:08.918Z,15.80
2022-10-17T03:26:35.887Z,15.80
2022-10-17T03:29:03.143Z,15.90
2022-10-17T03:31:29.686Z,15.90
2022-10-17T03:33:56.230Z,15.90
2022-10-17T03:36:22.816Z,15.90
2022-10-17T03:38:49.474Z,16.00
2022-10-17T03:41:15.997Z,16.00
2022-10-17T03:43:42.742Z,16.00
2022-10-17T03:46:09.341Z,16.00
2022-10-17T03:48:35.938Z,16.00
2022-10-17T03:51:04.436Z,16.00
2022-10-17T03:53:30.975Z,16.00
2022-10-17T03:55:57.797Z,16.00
2022-10-17T03:58:24.519Z,16.00
2022-10-17T04:00:51.100Z,16.00
2022-10-17T04:03:17.635Z,16.10
2022-10-17T04:05:44.316Z,16.00
2022-10-17T04:08:11.051Z,16.10
2022-10-17T04:10:37.604Z,16.00
2022-10-17T04:13:04.558Z,16.00
2022-10-17T04:15:31.094Z,16.00
2022-10-17T04:17:57.810Z,16.00
2022-10-17T04:20:24.532Z,16.00
2022-10-17T04:22:52.520Z,16.00
2022-10-17T04:25:19.056Z,15.90
2022-10-17T04:27:45.768Z,16.00
2022-10-17T04:30:12.386Z,16.00
2022-10-17T04:32:39.227Z,16.00
2022-10-17T04:35:06.366Z,16.00
2022-10-17T04:37:33.099Z,15.90
2022-10-17T04:39:59.889Z,16.00
2022-10-17T04:42:28.797Z,16.00
2022-10-17T04:44:55.491Z,16.00
2022-10-17T04:47:22.023Z,15.90
2022-10-17T04:49:48.728Z,16.00
2022-10-17T04:52:15.410Z,16.00
2022-10-17T04:54:41.983Z,16.00
2022-10-17T04:57:08.576Z,16.00
2022-10-17T04:59:35.158Z,16.10
2022-10-17T05:02:01.840Z,16.10
2022-10-17T05:04:33.719Z,16.20
2022-10-17T05:07:00.230Z,16.20
2022-10-17T05:09:27.186Z,16.20
2022-10-17T05:11:56.899Z,16.20
2022-10-17T05:14:24.839Z,16.20
2022-10-17T05:16:51.519Z,16.30
2022-10-17T05:19:18.679Z,16.20
2022-10-17T05:21:46.660Z,16.20
2022-10-17T05:24:14.016Z,16.20
2022-10-17T05:26:40.543Z,16.20
2022-10-17T05:29:07.296Z,16.30
2022-10-17T05:31:34.015Z,16.30
2022-10-17T05:34:01.911Z,16.30
2022-10-17T05:36:28.782Z,16.30
2022-10-17T05:38:55.307Z,16.30
2022-10-17T05:41:23.405Z,16.30
2022-10-17T05:43:50.350Z,16.40
2022-10-17T05:46:17.149Z,16.40
2022-10-17T05:48:43.647Z,16.40
2022-10-17T05:51:10.278Z,16.40
2022-10-17T05:53:38.088Z,16.40
2022-10-17T05:56:05.977Z,16.50
2022-10-17T05:58:51.809Z,16.50
2022-10-17T06:01:20.257Z,16.50
2022-10-17T06:03:47.002Z,16.50
2022-10-17T06:06:14.233Z,16.50
2022-10-17T06:08:40.792Z,16.50
2022-10-17T06:11:10.156Z,16.50
2022-10-17T06:13:37.885Z,16.50
2022-10-17T06:16:04.495Z,16.40
2022-10-17T06:18:33.901Z,16.40
2022-10-17T06:21:07.571Z,16.40
2022-10-17T06:23:34.218Z,16.50
2022-10-17T06:26:02.276Z,16.40
2022-10-17T06:28:29.072Z,16.40
2022-10-17T06:30:55.614Z,16.40
2022-10-17T06:33:23.345Z,16.50
2022-10-17T06:35:53.567Z,16.50
2022-10-17T06:38:22.512Z,16.50
2022-10-17T06:40:49.166Z,16.60
2022-10-17T06:43:15.673Z,16.50
2022-10-17T06:45:42.286Z,16.50
2022-10-17T06:48:09.194Z,16.60
2022-10-17T06:50:43.186Z,16.60
2022-10-17T06:53:09.766Z,16.60
2022-10-17T06:55:36.264Z,16.60
2022-10-17T06:58:02.807Z,16.60
2022-10-17T07:00:29.421Z,16.60
2022-10-17T07:02:55.920Z,16.70
2022-10-17T07:05:22.399Z,16.70
2022-10-17T07:07:51.727Z,16.80
2022-10-17T07:10:18.419Z,16.70
2022-10-17T07:12:45.705Z,16.80
2022-10-17T07:15:12.584Z,16.90
2022-10-17T07:17:39.365Z,16.80
2022-10-17T07:20:06.097Z,16.80
2022-10-17T07:22:32.580Z,16.80
2022-10-17T07:24:59.075Z,16.80
2022-10-17T07:27:25.572Z,16.90
2022-10-17T07:29:52.129Z,17.00
2022-10-17T07:32:18.661Z,16.90
2022-10-17T07:34:45.351Z,16.90
2022-10-17T07:37:14.737Z,16.90
2022-10-17T07:39:41.245Z,16.80
2022-10-17T07:42:07.740Z,17.00
2022-10-17T07:44:35.395Z,17.00
2022-10-17T07:47:02.152Z,16.90
2022-10-17T07:49:28.879Z,17.00
2022-10-17T07:51:55.444Z,16.90
2022-10-17T07:54:22.165Z,17.00
2022-10-17T07:56:50.561Z,17.00
2022-10-17T07:59:18.045Z,17.10
2022-10-17T08:01:44.576Z,17.10
2022-10-17T08:04:11.265Z,17.10
2022-10-17T08:06:38.348Z,17.10
2022-10-17T08:09:05.002Z,17.10
2022-10-17T08:11:31.646Z,17.10
2022-10-17T08:13:58.185Z,17.10
2022-10-17T08:16:25.560Z,17.10
2022-10-17T08:18:52.054Z,17.20
2022-10-17T08:21:18.539Z,17.20
2022-10-17T08:23:45.025Z,17.20
2022-10-17T08:26:13.328Z,17.20
2022-10-17T08:28:40.226Z,17.20
2022-10-17T08:31:08.419Z,17.20
2022-10-17T08:33:35.085Z,17.20
2022-10-17T08:36:02.257Z,17.20
2022-10-17T08:38:30.955Z,17.20
2022-10-17T08:41:01.309Z,17.30
2022-10-17T08:43:35.183Z,17.30
2022-10-17T08:46:03.567Z,17.30
2022-10-17T08:48:32.383Z,17.30
2022-10-17T08:51:00.580Z,17.40
2022-10-17T08:53:32.842Z,17.30
2022-10-17T08:56:02.594Z,17.40
2022-10-17T08:58:32.308Z,17.50
2022-10-17T09:01:03.683Z,17.50
2022-10-17T09:03:51.014Z,17.60
2022-10-17T09:06:20.622Z,17.60
2022-10-17T09:08:55.655Z,17.60
2022-10-17T09:11:24.918Z,17.50
2022-10-17T09:13:51.377Z,17.60
2022-10-17T09:16:37.283Z,17.60
2022-10-17T09:19:13.020Z,17.60
2022-10-17T09:21:42.203Z,17.60
2022-10-17T09:24:16.249Z,17.60
2022-10-17T09:26:44.302Z,17.60
2022-10-17T09:29:22.311Z,17.70
2022-10-17T09:31:53.567Z,17.60
2022-10-17T09:34:21.957Z,17.70
2022-10-17T09:36:50.539Z,17.70
2022-10-17T09:39:18.631Z,17.70
2022-10-17T09:41:49.534Z,17.70
2022-10-17T09:44:21.761Z,17.70
2022-10-17T09:47:07.043Z,17.60
2022-10-17T09:49:34.852Z,17.80
2022-10-17T09:52:03.252Z,17.80
2022-10-17T09:54:38.884Z,17.80
2022-10-17T09:57:06.641Z,17.80
2022-10-17T09:59:35.035Z,17.90
2022-10-17T10:02:08.975Z,17.80
2022-10-17T10:04:46.781Z,17.90
2022-10-17T10:07:25.699Z,17.90
2022-10-17T10:09:56.375Z,17.90
2022-10-17T10:12:24.651Z,18.00
2022-10-17T10:14:54.677Z,18.00
2022-10-17T10:17:26.617Z,18.00
2022-10-17T10:19:53.375Z,18.00
2022-10-17T10:22:21.855Z,18.00
2022-10-17T10:25:06.359Z,18.00
2022-10-17T10:30:01.728Z,18.10
2022-10-17T10:32:36.346Z,18.20
2022-10-17T10:35:05.547Z,18.10
2022-10-17T10:37:39.751Z,18.20
2022-10-17T10:40:15.292Z,18.20
2022-10-17T10:42:41.956Z,18.20
2022-10-17T10:48:22.518Z,18.10
2022-10-17T10:50:48.986Z,18.10
2022-10-17T10:53:27.141Z,18.20
2022-10-17T10:55:56.220Z,18.10
2022-10-17T10:58:43.038Z,18.20
2022-10-17T11:01:20.197Z,18.20
2022-10-17T11:03:52.788Z,18.30
2022-10-17T11:06:22.379Z,18.40
2022-10-17T11:08:50.926Z,18.40
2022-10-17T11:11:23.792Z,18.40
2022-10-17T11:13:58.256Z,18.50
2022-10-17T11:16:44.479Z,18.40
2022-10-17T11:19:40.868Z,18.50
2022-10-17T11:22:07.334Z,18.50
2022-10-17T11:24:33.787Z,18.50
2022-10-17T11:27:01.422Z,18.50
2022-10-17T11:29:34.554Z,18.50
2022-10-17T11:32:03.950Z,18.40
2022-10-17T11:34:32.184Z,18.40
2022-10-17T11:37:04.219Z,18.40
2022-10-17T11:39:33.650Z,18.40
2022-10-17T11:42:06.951Z,18.30
2022-10-17T11:44:37.526Z,18.30
2022-10-17T11:47:06.392Z,18.30
2022-10-17T11:49:42.288Z,18.30
2022-10-17T11:52:44.357Z,18.30
2022-10-17T11:55:14.347Z,18.40
2022-10-17T11:57:43.858Z,18.40
2022-10-17T12:00:19.255Z,18.50
2022-10-17T12:02:49.256Z,18.50
2022-10-17T12:05:22.739Z,18.50
2022-10-17T12:08:03.370Z,18.50
2022-10-17T12:10:37.259Z,18.50
2022-10-17T12:13:22.308Z,18.60
2022-10-17T12:15:48.847Z,18.60
2022-10-17T12:18:16.860Z,18.60
2022-10-17T12:20:43.547Z,18.60
2022-10-17T12:23:12.892Z,18.70
2022-10-17T12:26:04.682Z,18.70
2022-10-17T12:28:33.626Z,18.70
2022-10-17T12:31:00.394Z,18.70
2022-10-17T12:33:30.559Z,18.80
2022-10-17T12:36:15.725Z,18.80
2022-10-17T12:38:44.883Z,18.70
2022-10-17T12:41:13.391Z,18.60
2022-10-17T12:43:47.714Z,18.60
2022-10-17T12:46:34.456Z,18.60
2022-10-17T12:49:02.666Z,18.60
2022-10-17T12:51:37.977Z,18.50
2022-10-17T12:54:17.255Z,18.40
2022-10-17T12:56:48.013Z,18.50
2022-10-17T12:59:16.587Z,18.40
2022-10-17T13:01:48.000Z,18.30
2022-10-17T13:04:15.583Z,18.30
2022-10-17T13:06:46.997Z,18.30
2022-10-17T13:09:27.189Z,18.30
2022-10-17T13:11:54.562Z,18.50
2022-10-17T13:14:22.497Z,18.30
2022-10-17T13:16:53.490Z,18.40
2022-10-17T13:19:23.242Z,18.40
2022-10-17T13:21:56.212Z,18.50
2022-10-17T13:24:29.956Z,18.60
2022-10-17T13:26:56.508Z,18.70
2022-10-17T13:29:25.827Z,18.60
2022-10-17T13:31:57.026Z,18.70
2022-10-17T13:34:25.032Z,18.70
2022-10-17T13:37:02.884Z,18.70
2022-10-17T13:39:52.472Z,18.70
2022-10-17T13:42:20.588Z,18.60
2022-10-17T13:44:47.464Z,18.70
2022-10-17T13:47:21.867Z,18.70
2022-10-17T13:49:55.276Z,18.60
2022-10-17T13:52:24.988Z,18.70
2022-10-17T13:54:52.199Z,18.60
2022-10-17T13:57:21.523Z,18.50
2022-10-17T13:59:55.518Z,18.60
2022-10-17T14:02:29.208Z,18.50
2022-10-17T14:05:17.183Z,18.50
2022-10-17T14:08:13.410Z,18.70
2022-10-17T14:10:42.981Z,18.60
2022-10-17T14:13:23.132Z,18.60
2022-10-17T14:15:49.894Z,18.60
2022-10-17T14:18:21.357Z,18.60
2022-10-17T14:21:30.387Z,18.60
2022-10-17T14:23:40.705Z,18.60
2022-10-17T14:26:16.504Z,18.40
2022-10-17T14:28:44.083Z,18.40
2022-10-17T14:31:21.888Z,18.50
2022-10-17T14:33:50.856Z,18.70
2022-10-17T14:36:18.384Z,18.80
2022-10-17T14:38:46.129Z,19.20
2022-10-17T14:41:41.863Z,19.30
2022-10-17T14:44:08.020Z,19.40
2022-10-17T14:46:35.627Z,19.70
2022-10-17T14:49:04.024Z,19.70
2022-10-17T14:51:40.002Z,19.70
2022-10-17T14:54:23.918Z,19.60
2022-10-17T14:56:52.125Z,19.50
2022-10-17T14:59:51.490Z,19.50
2022-10-17T15:02:11.915Z,19.30
2022-10-17T15:04:38.619Z,19.40
2022-10-17T15:07:05.129Z,19.40
2022-10-17T15:09:31.742Z,19.40
2022-10-17T15:12:02.583Z,19.30
2022-10-17T15:14:29.066Z,19.20
2022-10-17T15:16:55.550Z,19.20
2022-10-17T15:19:22.266Z,19.20
2022-10-17T15:21:48.788Z,19.20
2022-10-17T15:24:15.797Z,19.20
2022-10-17T15:26:42.534Z,19.20
2022-10-17T15:29:10.478Z,19.20
2022-10-17T15:31:37.004Z,19.20
2022-10-17T15:34:03.515Z,19.20
2022-10-17T15:36:30.853Z,19.20
2022-10-17T15:38:59.154Z,19.20
2022-10-17T15:41:27.284Z,19.20
2022-10-17T15:43:53.783Z,19.20
2022-10-17T15:46:22.611Z,19.10
2022-10-17T15:48:49.187Z,19.00
2022-10-17T15:51:15.848Z,19.00
2022-10-17T15:53:42.438Z,19.00
2022-10-17T15:56:16.887Z,19.00
2022-10-17T15:58:43.392Z,18.90
2022-10-17T16:01:15.786Z,18.80
2022-10-17T16:03:42.306Z,18.80
2022-10-17T16:06:10.860Z,18.80
2022-10-17T16:08:43.087Z,18.70
2022-10-17T16:11:30.638Z,18.60
2022-10-17T16:13:58.918Z,18.60
2022-10-17T16:16:25.422Z,18.50
2022-10-17T16:18:51.908Z,18.50
2022-10-17T16:21:19.758Z,18.40
2022-10-17T16:23:49.070Z,18.30
2022-10-17T16:26:16.181Z,18.20
2022-10-17T16:28:46.099Z,18.20
2022-10-17T16:31:23.320Z,18.20
2022-10-17T16:33:51.482Z,18.10
2022-10-17T16:36:18.427Z,18.00
2022-10-17T16:38:45.518Z,18.00
2022-10-17T16:41:23.016Z,17.90
2022-10-17T16:43:50.375Z,17.90
2022-10-17T16:46:17.230Z,17.80
2022-10-17T16:48:44.691Z,17.80
2022-10-17T16:51:12.182Z,17.70
2022-10-17T16:53:44.911Z,17.70
2022-10-17T16:56:13.243Z,17.60
2022-10-17T16:58:40.719Z,17.60
2022-10-17T17:01:09.473Z,17.50
2022-10-17T17:03:38.088Z,17.50
2022-10-17T17:06:06.628Z,17.50
2022-10-17T17:08:33.968Z,17.50
2022-10-17T17:11:00.495Z,17.50
2022-10-17T17:13:28.179Z,17.40
2022-10-17T17:16:04.656Z,17.30
2022-10-17T17:18:31.623Z,17.20
2022-10-17T17:20:59.097Z,17.30
2022-10-17T17:23:25.815Z,17.30
2022-10-17T17:25:59.594Z,17.30
2022-10-17T17:28:26.902Z,17.30
2022-10-17T17:30:54.165Z,17.20
2022-10-17T17:33:21.288Z,17.20
2022-10-17T17:35:47.812Z,17.30
2022-10-17T17:38:14.299Z,17.30
2022-10-17T17:40:50.606Z,17.20
2022-10-17T17:43:18.300Z,17.10
2022-10-17T17:45:44.867Z,17.20
2022-10-17T17:48:12.418Z,17.20
2022-10-17T17:50:40.133Z,17.10
2022-10-17T17:53:07.783Z,17.10
2022-10-17T17:55:34.835Z,17.10
2022-10-17T17:58:01.503Z,17.00
2022-10-17T18:00:28.409Z,17.00
2022-10-17T18:02:56.096Z,17.00
2022-10-17T18:05:22.754Z,17.00
2022-10-17T18:07:49.475Z,17.00
2022-10-17T18:10:16.084Z,17.00
2022-10-17T18:12:42.743Z,17.00
2022-10-17T18:15:09.417Z,17.00
2022-10-17T18:17:36.087Z,16.90
2022-10-17T18:20:03.468Z,16.90
2022-10-17T18:22:30.420Z,16.90
2022-10-17T18:24:57.130Z,16.90
2022-10-17T18:27:23.656Z,16.90
2022-10-17T18:29:51.119Z,16.90
2022-10-17T18:32:17.638Z,16.80
2022-10-17T18:34:44.382Z,16.90
2022-10-17T18:37:11.075Z,16.90
2022-10-17T18:39:37.598Z,16.90
2022-10-17T18:42:05.721Z,16.90
2022-10-17T18:44:32.340Z,16.90
2022-10-17T18:47:03.039Z,16.80
2022-10-17T18:49:31.204Z,16.80
2022-10-17T18:51:59.444Z,16.80
2022-10-17T18:54:25.950Z,16.80
2022-10-17T18:56:53.847Z,16.80
2022-10-17T18:59:20.926Z,16.70
2022-10-17T19:01:48.082Z,16.80
2022-10-17T19:04:15.033Z,16.70
2022-10-17T19:06:41.780Z,16.70
2022-10-17T19:09:09.283Z,16.70
2022-10-17T19:11:36.723Z,16.70
2022-10-17T19:14:04.347Z,16.70
2022-10-17T19:16:32.423Z,16.70
2022-10-17T19:19:03.503Z,16.70
2022-10-17T19:21:30.619Z,16.60
2022-10-17T19:23:59.287Z,16.60
2022-10-17T19:26:27.019Z,16.60
2022-10-17T19:28:53.954Z,16.60
2022-10-17T19:31:26.256Z,16.60
2022-10-17T19:33:53.529Z,16.50
2022-10-17T19:36:21.187Z,16.50
2022-10-17T19:38:47.978Z,16.50
2022-10-17T19:41:16.655Z,16.50
2022-10-17T19:43:44.720Z,16.50
2022-10-17T19:46:12.572Z,16.50
2022-10-17T19:48:39.691Z,16.50
2022-10-17T19:51:07.199Z,16.60
2022-10-17T19:53:34.325Z,16.60
2022-10-17T19:56:02.245Z,16.60
2022-10-17T19:58:28.879Z,16.60
2022-10-17T20:00:57.265Z,16.60
2022-10-17T20:03:31.838Z,16.60
2022-10-17T20:05:58.529Z,16.60
2022-10-17T20:10:52.535Z,16.60
2022-10-17T20:13:19.223Z,16.70
2022-10-17T20:15:55.520Z,16.60
2022-10-17T20:18:22.040Z,16.60
2022-10-17T20:20:48.564Z,16.60
2022-10-17T20:23:15.261Z,16.60
2022-10-17T20:25:42.063Z,16.70
2022-10-17T20:28:08.647Z,16.70
2022-10-17T20:30:35.178Z,16.70
2022-10-17T20:33:01.766Z,16.70
2022-10-17T20:35:28.644Z,16.70
2022-10-17T20:37:55.187Z,16.70
2022-10-17T20:40:34.776Z,16.70
2022-10-17T20:43:02.130Z,16.70
2022-10-17T20:45:43.679Z,16.70
2022-10-17T20:48:15.656Z,16.70
2022-10-17T20:50:42.912Z,16.70
2022-10-17T20:53:34.797Z,16.70
2022-10-17T20:56:03.970Z,16.70
2022-10-17T20:58:30.575Z,16.70
2022-10-17T21:00:57.334Z,16.70
2022-10-17T21:03:24.499Z,16.70
2022-10-17T21:05:51.095Z,16.60
2022-10-17T21:08:17.858Z,16.60
2022-10-17T21:10:44.391Z,16.60
2022-10-17T21:13:10.915Z,16.60
2022-10-17T21:15:37.628Z,16.60
2022-10-17T21:18:04.147Z,16.60
2022-10-17T21:20:30.815Z,16.60
2022-10-17T21:22:57.830Z,16.70
2022-10-17T21:25:24.367Z,16.70
2022-10-17T21:27:54.751Z,16.60
2022-10-17T21:30:21.807Z,16.60
2022-10-17T21:32:52.142Z,16.50
2022-10-17T21:35:18.857Z,16.50
2022-10-17T21:37:45.367Z,16.40
2022-10-17T21:40:12.222Z,16.40
2022-10-17T21:42:41.239Z,16.40
2022-10-17T21:45:15.146Z,16.30
2022-10-17T21:48:11.306Z,16.30
2022-10-17T21:50:33.268Z,16.30
2022-10-17T21:52:59.770Z,16.30
2022-10-17T21:55:26.292Z,16.20
2022-10-17T21:57:52.831Z,16.20
2022-10-17T22:00:19.523Z,16.10
2022-10-17T22:02:46.203Z,16.10
2022-10-17T22:05:12.747Z,16.10
2022-10-17T22:07:39.259Z,16.10
2022-10-17T22:10:06.278Z,16.00
2022-10-17T22:12:33.191Z,16.00
2022-10-17T22:14:59.887Z,16.00
2022-10-17T22:17:26.514Z,15.90
2022-10-17T22:19:53.217Z,15.90
2022-10-17T22:22:19.772Z,15.90
2022-10-17T22:24:46.296Z,15.90
2022-10-17T22:27:13.022Z,15.90
2022-10-17T22:29:39.650Z,15.80
2022-10-17T22:32:06.382Z,15.80
2022-10-17T22:34:33.067Z,15.80
2022-10-17T22:36:59.809Z,15.80
2022-10-17T22:39:26.496Z,15.80
2022-10-17T22:41:53.364Z,15.70
2022-10-17T22:44:19.920Z,15.70
2022-10-17T22:46:46.537Z,15.70
2022-10-17T22:49:13.274Z,15.70
2022-10-17T22:51:39.813Z,15.70
2022-10-17T22:54:06.519Z,15.70
2022-10-17T22:56:33.044Z,15.70
2022-10-17T22:58:59.766Z,15.60
2022-10-17T23:01:26.521Z,15.60
2022-10-17T23:03:53.325Z,15.60
2022-10-17T23:06:20.497Z,15.60
2022-10-17T23:08:47.390Z,15.50
2022-10-17T23:11:14.086Z,15.50
2022-10-17T23:13:41.001Z,15.50
2022-10-17T23:16:08.075Z,15.50
2022-10-17T23:18:34.901Z,15.50
2022-10-17T23:21:04.081Z,15.50
2022-10-17T23:23:30.783Z,15.50
2022-10-17T23:26:03.735Z,15.50
2022-10-17T23:28:35.701Z,15.50
2022-10-17T23:31:15.179Z,15.50
2022-10-17T23:33:42.887Z,15.50
2022-10-17T23:36:10.702Z,15.40
2022-10-17T23:38:40.146Z,15.40
2022-10-17T23:41:07.239Z,15.40
2022-10-17T23:43:34.429Z,15.40
2022-10-17T23:46:01.791Z,15.40
2022-10-17T23:48:28.627Z,15.40
2022-10-17T23:50:56.148Z,15.40
2022-10-17T23:53:23.306Z,15.40
2022-10-17T23:55:50.363Z,15.40
2022-10-17T23:58:16.968Z,15.40
